Mount Pocono, Pennsylvania
Current Conditions -  °F | °C
As of 2:53 AM on Friday 19 Dec 2014 (Local Time) from KMPO Reporting Station
Overcast Overcast  
Wind Chill: 20°   Ceiling: 1900
Heat Index: 29°   Visibility: 10mi
Dew Point: 21°   Wind: 10mph
Humidity: 72%   Direction: 310°NW
Pressure: 29.91"   Gusts: 21mph
Location:  41.12°N, 75.36°W
Report Text: KMPO 190753Z AUTO 31009G18KT 10SM OVC019 M02/M06 A2991 RMK AO2 SLP149 T10171061
Loading
Personal Weather Stations






























Interactive Weather Map New forecast layout! Learn more

10-Day Weather Forecast

Advertisements
Track Severe Weather on mobile